Time;durP1;ratioP1;P1;durP2;ratioP2;P2;SDS_P1;SDS_P2;PMS_P1;PMS_P2;Temp;Humidity;BMP_temperature;BMP_pressure;BME280_temperature;BME280_humidity;BME280_pressure;Samples;Min_cycle;Max_cycle;Signal;HPM_P1;HPM_P2
2021/11/02 00:00:54;;;;;;;;;;;;;;;6.38;65.69;99880.09;4983110;28;20393;-78
2021/11/02 00:03:20;;;;;;;;;;;;;;;6.38;65.78;99869.47;4999725;28;19921;-79
2021/11/02 00:05:45;;;;;;;;;;;;;;;6.43;65.52;99875.41;5015625;28;19921;-83
2021/11/02 00:08:11;;;;;;;;;;;;;;;6.36;65.64;99876.69;4983174;28;20245;-80
2021/11/02 00:10:37;;;;;;;;;;;;;;;6.45;65.56;99883.28;5015968;28;19920;-79
2021/11/02 00:13:03;;;;;;;;;;;;;;;6.48;65.51;99886.63;4999281;28;19925;-81
2021/11/02 00:15:31;;;;;;;;;;;;;;;6.48;65.67;99883.97;5015785;28;20300;-81
2021/11/02 00:18:03;;;;;;;;;;;;;;;6.55;65.38;99885.38;4999551;28;19924;-80
2021/11/02 00:20:29;;;;;;;;;;;;;;;6.55;65.30;99896.00;4999934;28;20380;-80
2021/11/02 00:22:56;;;;;;;;;;;;;;;6.55;65.38;99890.69;4999537;28;19927;-81
2021/11/02 00:25:22;;;;;;;;;;;;;;;6.60;65.12;99889.56;4999444;28;19929;-81
2021/11/02 00:27:48;;;;;;;;;;;;;;;6.67;65.20;99893.59;5015507;28;20299;-81
2021/11/02 00:30:14;;;;;;;;;;;;;;;6.74;65.25;99885.22;4999210;28;19952;-81
2021/11/02 00:32:41;;;;;;;;;;;;;;;6.77;64.96;99894.78;4999122;28;19921;-80
2021/11/02 00:35:07;;;;;;;;;;;;;;;6.78;65.07;99901.84;4982968;28;19920;-81
2021/11/02 00:37:33;;;;;;;;;;;;;;;6.86;64.68;99904.91;4983251;28;20296;-81
2021/11/02 00:40:00;;;;;;;;;;;;;;;6.87;64.60;99905.78;4998947;28;19928;-81
2021/11/02 00:42:39;;;;;;;;;;;;;;;6.94;64.76;99901.84;4983154;28;19920;-81
2021/11/02 00:45:07;;;;;;;;;;;;;;;6.89;65.02;99899.44;4986139;28;19990;-81
2021/11/02 00:47:33;;;;;;;;;;;;;;;6.89;64.92;99907.41;5017476;28;19928;-82
2021/11/02 00:50:00;;;;;;;;;;;;;;;7.02;64.60;99891.63;5031739;28;19925;-81
2021/11/02 00:52:28;;;;;;;;;;;;;;;7.10;64.32;99901.81;4999202;28;19920;-80
2021/11/02 00:54:54;;;;;;;;;;;;;;;7.09;64.57;99900.13;5015471;28;19924;-81
2021/11/02 00:57:20;;;;;;;;;;;;;;;7.12;64.55;99899.94;4982557;28;20490;-82
2021/11/02 00:59:47;;;;;;;;;;;;;;;7.21;64.25;99902.06;5015019;28;20335;-80
2021/11/02 01:02:13;;;;;;;;;;;;;;;7.01;64.60;99912.03;5015062;28;19974;-81
2021/11/02 01:04:39;;;;;;;;;;;;;;;7.00;64.64;99912.13;4982854;28;19925;-82
2021/11/02 01:07:05;;;;;;;;;;;;;;;7.02;64.60;99905.75;4999084;28;19947;-82
2021/11/02 01:09:31;;;;;;;;;;;;;;;6.90;64.90;99911.78;4982692;28;19929;-81
2021/11/02 01:11:57;;;;;;;;;;;;;;;6.94;64.80;99915.97;4999214;28;19955;-80
2021/11/02 01:14:23;;;;;;;;;;;;;;;6.96;64.83;99921.22;4998969;28;19921;-82
2021/11/02 01:16:49;;;;;;;;;;;;;;;7.03;64.75;99918.13;4982198;28;19971;-80
2021/11/02 01:19:16;;;;;;;;;;;;;;;7.11;64.86;99917.69;5031497;28;20386;-79
2021/11/02 01:21:42;;;;;;;;;;;;;;;7.17;64.56;99929.78;5014985;28;20019;-80
2021/11/02 01:24:08;;;;;;;;;;;;;;;7.27;64.43;99930.97;5014903;28;19964;-81
2021/11/02 01:26:33;;;;;;;;;;;;;;;7.30;64.20;99938.78;4982492;28;19967;-79
2021/11/02 01:28:59;;;;;;;;;;;;;;;7.25;64.08;99938.16;4998887;28;20430;-78
2021/11/02 01:31:25;;;;;;;;;;;;;;;7.29;63.99;99934.38;5031185;28;19953;-78
2021/11/02 01:33:51;;;;;;;;;;;;;;;7.32;63.81;99944.84;4998599;28;19951;-78
2021/11/02 01:36:17;;;;;;;;;;;;;;;7.30;63.80;99941.44;4998494;28;19983;-78
2021/11/02 01:38:49;;;;;;;;;;;;;;;7.28;64.00;99946.84;5034859;28;20293;-77
2021/11/02 01:41:18;;;;;;;;;;;;;;;7.34;63.85;99948.31;5035805;28;19921;-77
2021/11/02 01:43:45;;;;;;;;;;;;;;;7.33;63.79;99954.53;5002178;28;19921;-76
2021/11/02 01:46:24;;;;;;;;;;;;;;;7.37;63.79;99949.91;5003104;28;19928;-77
2021/11/02 01:48:53;;;;;;;;;;;;;;;7.39;63.61;99951.53;5002272;28;19983;-77
2021/11/02 01:51:21;;;;;;;;;;;;;;;7.43;63.39;99955.75;5018475;28;19964;-77
2021/11/02 01:53:47;;;;;;;;;;;;;;;7.33;63.69;99962.53;5001737;28;19921;-79
2021/11/02 01:56:13;;;;;;;;;;;;;;;7.37;63.68;99956.09;5001674;28;20446;-77
2021/11/02 01:58:43;;;;;;;;;;;;;;;7.29;63.70;99969.81;5018226;28;19921;-78
2021/11/02 02:01:10;;;;;;;;;;;;;;;7.06;64.32;99971.09;5018193;28;19967;-78
2021/11/02 02:03:52;;;;;;;;;;;;;;;7.05;64.38;99972.06;5002363;28;20414;-78
2021/11/02 02:06:37;;;;;;;;;;;;;;;7.11;64.21;99972.66;5001686;28;19921;-77
2021/11/02 02:09:16;;;;;;;;;;;;;;;7.04;64.57;99970.34;5001826;28;20015;-78
2021/11/02 02:11:49;;;;;;;;;;;;;;;6.99;64.82;99980.34;5002964;28;19921;-78
2021/11/02 02:14:20;;;;;;;;;;;;;;;7.00;64.78;99976.78;4985183;28;19921;-77
2021/11/02 02:16:50;;;;;;;;;;;;;;;7.03;65.45;99976.63;4986190;28;19921;-78
2021/11/02 02:19:26;;;;;;;;;;;;;;;6.96;65.44;99985.88;5018117;28;19920;-78
2021/11/02 02:21:55;;;;;;;;;;;;;;;6.88;65.55;99977.44;5034021;28;20038;-78
2021/11/02 02:24:22;;;;;;;;;;;;;;;6.68;66.26;99985.63;5035234;28;19924;-77
2021/11/02 02:27:07;;;;;;;;;;;;;;;6.60;66.64;99987.84;5001030;28;19956;-78
2021/11/02 02:29:34;;;;;;;;;;;;;;;6.71;66.80;99982.81;5017568;28;19967;-77
2021/11/02 02:32:03;;;;;;;;;;;;;;;6.73;66.67;99988.88;5002073;28;19964;-79
2021/11/02 02:34:30;;;;;;;;;;;;;;;6.67;66.78;99990.09;5017635;28;19966;-77
2021/11/02 02:36:56;;;;;;;;;;;;;;;6.55;67.17;99988.97;4984570;28;19921;-77
2021/11/02 02:39:21;;;;;;;;;;;;;;;6.57;67.64;99995.03;5000591;28;19921;-79
2021/11/02 02:42:03;;;;;;;;;;;;;;;6.69;67.35;99995.31;5005340;28;19921;-78
2021/11/02 02:44:30;;;;;;;;;;;;;;;6.75;67.53;99995.00;5002690;28;19921;-78
2021/11/02 02:46:56;;;;;;;;;;;;;;;6.77;67.43;99998.41;5018184;28;20007;-77
2021/11/02 02:49:25;;;;;;;;;;;;;;;6.81;67.54;99997.34;5000941;28;19933;-77
2021/11/02 02:51:51;;;;;;;;;;;;;;;6.79;67.36;99994.75;4984479;28;19932;-79
2021/11/02 02:54:17;;;;;;;;;;;;;;;6.75;67.54;100002.97;5000576;28;19921;-77
2021/11/02 02:56:48;;;;;;;;;;;;;;;6.74;67.77;99996.78;5001039;28;19927;-78
2021/11/02 02:59:16;;;;;;;;;;;;;;;6.68;68.16;100006.88;5001167;28;19928;-78
2021/11/02 03:01:42;;;;;;;;;;;;;;;6.63;68.46;100004.47;4984386;28;19920;-77
2021/11/02 03:04:14;;;;;;;;;;;;;;;6.66;68.40;100003.47;5033005;28;19925;-78
2021/11/02 03:06:46;;;;;;;;;;;;;;;6.59;68.88;100002.06;4984742;28;19929;-77
2021/11/02 03:09:14;;;;;;;;;;;;;;;6.60;68.80;100004.63;5016443;28;19921;-78
2021/11/02 03:11:40;;;;;;;;;;;;;;;6.45;69.52;100011.63;5000153;28;20296;-78
2021/11/02 03:14:07;;;;;;;;;;;;;;;6.46;69.53;100023.09;5000184;28;19928;-79
2021/11/02 03:16:49;;;;;;;;;;;;;;;6.37;70.01;100024.44;5016540;28;19974;-79
2021/11/02 03:19:56;;;;;;;;;;;;;;;6.26;70.50;100027.66;5039321;28;19971;-78
2021/11/02 03:44:07;;;;;;;;;;;;;;;6.32;70.61;100058.34;5052317;28;19924;-77
2021/11/02 03:55:00;;;;;;;;;;;;;;;6.42;70.59;100070.19;5019424;28;20311;-81
2021/11/02 03:57:51;;;;;;;;;;;;;;;6.59;72.97;100069.34;5021687;28;19939;-77
2021/11/02 04:01:29;;;;;;;;;;;;;;;7.04;72.88;100076.69;5040120;28;20027;-79
2021/11/02 04:28:14;;;;;;;;;;;;;;;6.42;71.08;100120.66;5021168;28;20019;-77
2021/11/02 04:34:13;;;;;;;;;;;;;;;6.55;70.64;100124.41;5052147;28;19967;-79
2021/11/02 05:09:41;;;;;;;;;;;;;;;6.59;70.20;100167.63;5013363;28;19924;-83
2021/11/02 05:54:09;;;;;;;;;;;;;;;6.82;69.17;100208.97;5020181;28;19921;-79
2021/11/02 05:59:15;;;;;;;;;;;;;;;6.84;69.60;100220.38;5021081;28;20031;-78
2021/11/02 06:06:56;;;;;;;;;;;;;;;6.81;69.35;100216.09;5051137;28;20374;-77
2021/11/02 06:09:26;;;;;;;;;;;;;;;6.79;69.53;100230.38;5055739;28;19960;-77
2021/11/02 06:27:43;;;;;;;;;;;;;;;6.85;69.85;100259.31;5031494;28;20017;-75
2021/11/02 06:29:10;;;;;;;;;;;;;;;7.26;69.44;100253.69;5049354;28;19924;-77
2021/11/02 06:31:38;;;;;;;;;;;;;;;7.51;68.50;100261.22;5045049;28;19990;-76
2021/11/02 06:34:23;;;;;;;;;;;;;;;7.64;67.71;100264.97;5025974;28;19921;-77
2021/11/02 06:39:53;;;;;;;;;;;;;;;7.91;66.27;100273.28;5053222;28;19925;-76
2021/11/02 07:23:34;;;;;;;;;;;;;;;7.56;67.36;100341.69;5010941;28;19921;-76
2021/11/02 08:48:34;;;;;;;;;;;;;;;7.58;66.12;100397.47;5037701;28;19969;-77
2021/11/02 08:51:01;;;;;;;;;;;;;;;7.76;65.17;100408.03;5038323;28;20253;-77
2021/11/02 08:53:27;;;;;;;;;;;;;;;7.79;65.17;100412.34;5055332;28;19921;-76
2021/11/02 08:55:53;;;;;;;;;;;;;;;7.90;64.95;100409.09;5022736;28;19927;-77
2021/11/02 08:58:19;;;;;;;;;;;;;;;8.07;64.66;100406.44;5038590;28;19925;-78
2021/11/02 09:00:45;;;;;;;;;;;;;;;8.26;64.52;100419.63;5055036;28;19921;-79
2021/11/02 09:03:14;;;;;;;;;;;;;;;8.32;63.67;100414.00;5037447;28;19932;-78
2021/11/02 09:05:40;;;;;;;;;;;;;;;8.39;63.35;100411.91;5038193;28;19986;-77
2021/11/02 09:08:08;;;;;;;;;;;;;;;8.40;63.12;100418.94;5055044;28;19924;-77
2021/11/02 09:10:34;;;;;;;;;;;;;;;8.46;63.03;100427.47;5038666;28;19986;-77
2021/11/02 09:13:00;;;;;;;;;;;;;;;8.47;63.01;100415.00;5055008;28;20371;-76
2021/11/02 09:15:27;;;;;;;;;;;;;;;8.55;62.85;100422.59;5054840;28;20379;-77
2021/11/02 09:17:53;;;;;;;;;;;;;;;8.59;62.92;100427.66;5037603;28;19947;-77
2021/11/02 09:20:19;;;;;;;;;;;;;;;8.55;62.60;100418.09;5055078;28;19928;-80
2021/11/02 09:22:45;;;;;;;;;;;;;;;8.61;62.93;100420.41;5026544;28;19921;-76
2021/11/02 09:25:11;;;;;;;;;;;;;;;8.76;62.67;100410.72;5037766;28;19920;-80
2021/11/02 09:27:40;;;;;;;;;;;;;;;8.87;62.12;100416.31;5021431;28;20010;-77
2021/11/02 09:30:07;;;;;;;;;;;;;;;8.96;61.87;100420.28;5037902;28;19920;-74
2021/11/02 09:32:33;;;;;;;;;;;;;;;8.86;61.55;100427.94;5037145;28;19921;-75
2021/11/02 09:34:58;;;;;;;;;;;;;;;8.51;62.39;100430.75;5037481;28;19928;-78
2021/11/02 09:37:24;;;;;;;;;;;;;;;8.38;62.77;100423.47;5037942;28;19927;-78
2021/11/02 09:39:51;;;;;;;;;;;;;;;8.34;63.19;100428.06;5037291;28;19956;-79
2021/11/02 09:42:35;;;;;;;;;;;;;;;8.14;63.60;100429.16;5021279;28;19921;-78
2021/11/02 09:45:14;;;;;;;;;;;;;;;7.91;64.73;100442.81;5033751;28;19925;-76
2021/11/02 09:47:43;;;;;;;;;;;;;;;8.03;64.74;100437.69;5034701;28;19964;-76
2021/11/02 09:50:10;;;;;;;;;;;;;;;8.26;64.26;100440.94;5035181;28;20023;-77
2021/11/02 09:52:39;;;;;;;;;;;;;;;8.20;64.04;100446.63;5030296;28;20373;-77
2021/11/02 09:55:24;;;;;;;;;;;;;;;8.09;64.45;100446.31;5021125;28;19920;-77
2021/11/02 09:57:49;;;;;;;;;;;;;;;8.22;64.58;100450.03;5021227;28;19924;-77
2021/11/02 10:00:22;;;;;;;;;;;;;;;8.43;64.23;100451.63;5054416;28;19921;-78
2021/11/02 10:03:01;;;;;;;;;;;;;;;8.40;63.58;100457.09;5022048;28;19928;-76
2021/11/02 10:05:37;;;;;;;;;;;;;;;8.14;64.48;100461.09;5020976;28;19963;-76
2021/11/02 10:08:24;;;;;;;;;;;;;;;7.91;65.06;100459.63;5006355;28;20383;-78
2021/11/02 10:10:50;;;;;;;;;;;;;;;7.99;65.17;100469.88;5052937;28;20291;-77
2021/11/02 10:13:24;;;;;;;;;;;;;;;8.04;65.10;100466.03;4990391;28;19921;-77
2021/11/02 10:16:03;;;;;;;;;;;;;;;8.12;64.74;100473.63;4980931;28;19933;-77
2021/11/02 10:18:40;;;;;;;;;;;;;;;8.14;64.61;100476.22;4981655;28;19941;-77
2021/11/02 10:21:22;;;;;;;;;;;;;;;8.14;64.68;100476.22;4980408;28;20284;-77
2021/11/02 10:23:51;;;;;;;;;;;;;;;7.90;65.33;100484.53;4965535;28;19972;-79
2021/11/02 10:26:23;;;;;;;;;;;;;;;8.02;64.88;100489.22;4965068;28;19921;-78
2021/11/02 10:28:56;;;;;;;;;;;;;;;8.00;64.46;100491.09;4981136;28;19921;-77
2021/11/02 10:31:24;;;;;;;;;;;;;;;7.98;64.41;100492.13;4997271;28;19952;-78
2021/11/02 10:34:08;;;;;;;;;;;;;;;7.99;64.04;100494.72;4996696;28;19928;-77
2021/11/02 10:36:36;;;;;;;;;;;;;;;7.88;65.11;100502.38;4965625;28;19928;-77
2021/11/02 10:39:06;;;;;;;;;;;;;;;7.99;64.88;100505.34;4981565;28;20285;-79
2021/11/02 10:41:39;;;;;;;;;;;;;;;8.13;64.96;100511.78;4964299;28;19921;-77
2021/11/02 10:44:27;;;;;;;;;;;;;;;8.24;64.58;100514.78;4997244;28;20015;-76
2021/11/02 10:46:59;;;;;;;;;;;;;;;8.33;64.36;100508.94;4980845;28;20020;-78
2021/11/02 10:49:30;;;;;;;;;;;;;;;8.36;63.92;100524.78;4963760;28;20376;-78
2021/11/02 10:52:04;;;;;;;;;;;;;;;8.25;63.98;100527.13;4984226;28;19921;-78
2021/11/02 10:54:48;;;;;;;;;;;;;;;8.16;64.36;100528.47;5033798;28;20328;-78
2021/11/02 10:57:22;;;;;;;;;;;;;;;8.02;64.76;100526.50;5017679;28;20462;-78
2021/11/02 10:59:48;;;;;;;;;;;;;;;7.79;65.72;100533.00;5017034;28;19929;-78
2021/11/02 11:02:34;;;;;;;;;;;;;;;7.70;66.13;100543.22;5016669;28;20455;-79
2021/11/02 11:05:04;;;;;;;;;;;;;;;7.82;66.13;100545.25;5033161;28;19921;-77
2021/11/02 11:07:40;;;;;;;;;;;;;;;8.01;65.52;100554.09;5017192;28;19921;-78
2021/11/02 11:10:07;;;;;;;;;;;;;;;8.01;63.37;100556.75;5016275;28;19928;-77
2021/11/02 11:12:34;;;;;;;;;;;;;;;8.04;62.87;100559.22;5017107;28;20027;-78
2021/11/02 11:15:02;;;;;;;;;;;;;;;8.14;61.44;100569.44;5017160;28;20026;-77
2021/11/02 11:17:30;;;;;;;;;;;;;;;8.14;60.45;100580.09;5033517;28;20304;-78
2021/11/02 11:20:06;;;;;;;;;;;;;;;8.15;59.94;100569.34;5016578;28;19921;-76
2021/11/02 11:22:40;;;;;;;;;;;;;;;8.05;59.45;100578.75;5033020;28;19921;-78
2021/11/02 11:25:10;;;;;;;;;;;;;;;8.10;59.68;100581.19;5016859;28;20023;-79
2021/11/02 11:27:37;;;;;;;;;;;;;;;8.03;59.16;100581.47;5016933;28;19925;-77
2021/11/02 11:30:07;;;;;;;;;;;;;;;8.12;59.34;100589.94;5016950;28;20311;-77
2021/11/02 11:32:36;;;;;;;;;;;;;;;8.15;58.32;100589.78;5016790;28;19921;-78
2021/11/02 11:35:03;;;;;;;;;;;;;;;8.17;58.05;100598.59;5033274;28;19974;-77
2021/11/02 11:37:29;;;;;;;;;;;;;;;8.12;57.14;100597.94;5016142;28;19921;-77
2021/11/02 11:40:02;;;;;;;;;;;;;;;8.10;56.91;100607.81;5015787;28;20011;-77
2021/11/02 11:42:31;;;;;;;;;;;;;;;8.10;56.50;100605.16;5032794;28;19948;-76
2021/11/02 11:44:58;;;;;;;;;;;;;;;8.02;56.23;100610.88;5016585;28;20284;-77
2021/11/02 11:47:24;;;;;;;;;;;;;;;7.96;55.65;100612.00;5032365;28;19924;-76
2021/11/02 11:49:51;;;;;;;;;;;;;;;7.97;55.72;100616.41;5015889;28;19975;-77
2021/11/02 11:52:20;;;;;;;;;;;;;;;7.80;54.23;100616.38;5015677;28;19928;-75
2021/11/02 11:54:50;;;;;;;;;;;;;;;7.69;54.72;100619.53;5015845;28;20398;-77
2021/11/02 11:57:27;;;;;;;;;;;;;;;7.67;55.28;100625.84;5016027;28;19921;-77
2021/11/02 12:00:01;;;;;;;;;;;;;;;7.65;54.92;100633.06;5032542;28;19921;-77
2021/11/02 12:02:34;;;;;;;;;;;;;;;7.66;54.45;100640.09;5032970;28;19920;-76
2021/11/02 12:05:02;;;;;;;;;;;;;;;7.56;54.37;100639.69;5032975;28;19920;-78
2021/11/02 12:07:31;;;;;;;;;;;;;;;7.49;53.97;100646.22;5016250;28;20015;-76
2021/11/02 12:10:02;;;;;;;;;;;;;;;7.48;54.38;100647.16;5015654;28;20015;-76
2021/11/02 12:12:29;;;;;;;;;;;;;;;7.54;54.38;100653.06;5032291;28;20070;-75
2021/11/02 12:14:55;;;;;;;;;;;;;;;7.47;54.00;100659.59;5015379;28;19956;-77
2021/11/02 12:17:21;;;;;;;;;;;;;;;7.53;54.61;100664.63;5032257;28;19920;-76
2021/11/02 12:19:48;;;;;;;;;;;;;;;7.59;54.07;100660.81;5015185;28;20102;-76
2021/11/02 12:22:18;;;;;;;;;;;;;;;7.57;54.24;100657.38;5031758;28;20014;-76
2021/11/02 12:24:45;;;;;;;;;;;;;;;7.54;53.97;100673.47;5032201;28;19928;-77
2021/11/02 12:27:14;;;;;;;;;;;;;;;7.53;53.84;100669.97;5032120;28;19921;-77
2021/11/02 12:29:41;;;;;;;;;;;;;;;7.42;53.27;100676.72;5032154;28;20217;-75
2021/11/02 12:32:11;;;;;;;;;;;;;;;7.10;53.81;100683.47;5032074;28;19988;-78
2021/11/02 12:35:06;;;;;;;;;;;;;;;7.11;54.16;100686.06;5016158;28;19928;-78
2021/11/02 12:37:34;;;;;;;;;;;;;;;7.00;53.84;100689.19;5014702;28;19980;-76
2021/11/02 12:40:19;;;;;;;;;;;;;;;6.96;53.89;100684.94;5031419;28;19956;-78
2021/11/02 12:42:45;;;;;;;;;;;;;;;6.97;54.04;100699.97;5031230;28;19970;-76
2021/11/02 12:45:11;;;;;;;;;;;;;;;7.02;53.50;100694.44;4998878;28;19968;-78
2021/11/02 12:47:38;;;;;;;;;;;;;;;6.95;53.62;100703.59;5015129;28;19927;-79
2021/11/02 12:50:04;;;;;;;;;;;;;;;6.79;53.85;100708.72;4998992;28;20403;-78
2021/11/02 12:52:31;;;;;;;;;;;;;;;6.89;54.15;100706.56;4998898;28;20006;-78
2021/11/02 12:54:58;;;;;;;;;;;;;;;6.85;53.75;100705.81;4998768;28;19943;-79
2021/11/02 12:57:36;;;;;;;;;;;;;;;6.85;53.56;100712.94;5014012;28;19973;-79
2021/11/02 13:00:05;;;;;;;;;;;;;;;6.56;53.35;100731.81;5030629;28;20023;-76
2021/11/02 13:02:38;;;;;;;;;;;;;;;6.30;53.26;100726.69;5031552;28;19925;-77
2021/11/02 13:05:16;;;;;;;;;;;;;;;6.31;53.55;100736.38;4998638;28;19947;-77
2021/11/02 13:07:42;;;;;;;;;;;;;;;6.33;53.73;100729.25;5014855;28;19936;-77
2021/11/02 13:10:13;;;;;;;;;;;;;;;6.36;56.10;100737.09;5014665;28;19921;-78
2021/11/02 13:12:40;;;;;;;;;;;;;;;6.50;55.29;100742.69;5031218;28;19921;-76
2021/11/02 13:15:11;;;;;;;;;;;;;;;6.61;53.86;100742.25;5013983;28;19927;-77
2021/11/02 13:17:40;;;;;;;;;;;;;;;6.63;52.73;100750.16;5015287;28;20389;-76
2021/11/02 13:20:08;;;;;;;;;;;;;;;6.55;51.95;100743.38;5014989;28;19921;-79
2021/11/02 13:22:34;;;;;;;;;;;;;;;6.58;52.54;100750.34;5031170;28;20252;-76
2021/11/02 13:25:07;;;;;;;;;;;;;;;6.52;51.76;100754.13;5030912;28;19921;-76
2021/11/02 13:27:34;;;;;;;;;;;;;;;6.44;51.62;100766.84;5031281;28;19921;-77
2021/11/02 13:30:18;;;;;;;;;;;;;;;6.47;51.35;100764.09;5013871;28;19997;-77
2021/11/02 13:32:55;;;;;;;;;;;;;;;6.44;51.28;100773.97;5033127;28;19921;-77
2021/11/02 13:35:35;;;;;;;;;;;;;;;6.38;51.02;100774.19;5018512;28;19920;-77
2021/11/02 13:38:18;;;;;;;;;;;;;;;6.31;50.91;100781.53;5018233;28;19978;-75
2021/11/02 13:40:44;;;;;;;;;;;;;;;6.07;51.11;100781.56;5034722;28;20295;-79
2021/11/02 13:43:10;;;;;;;;;;;;;;;6.13;51.19;100782.25;5034424;28;19921;-77
2021/11/02 13:45:36;;;;;;;;;;;;;;;6.16;51.12;100790.09;5017569;28;19972;-75
2021/11/02 13:48:04;;;;;;;;;;;;;;;6.16;50.58;100798.94;5018073;28;20427;-78
2021/11/02 13:50:30;;;;;;;;;;;;;;;6.05;50.72;100801.97;5037246;28;19961;-77
2021/11/02 13:52:56;;;;;;;;;;;;;;;6.03;50.33;100810.94;5036552;28;19982;-76
2021/11/02 13:55:22;;;;;;;;;;;;;;;5.99;50.32;100819.97;5035219;28;19954;-77
2021/11/02 13:57:48;;;;;;;;;;;;;;;5.99;50.67;100826.13;5020660;28;20421;-77
2021/11/02 14:00:16;;;;;;;;;;;;;;;5.82;50.60;100823.19;5020673;28;19997;-77
2021/11/02 14:02:44;;;;;;;;;;;;;;;5.87;50.84;100826.56;5038311;28;19920;-79
2021/11/02 14:05:12;;;;;;;;;;;;;;;5.92;50.56;100829.03;5061073;28;20424;-76
2021/11/02 14:07:38;;;;;;;;;;;;;;;5.93;51.67;100822.81;5052068;28;19947;-81
2021/11/02 14:10:07;;;;;;;;;;;;;;;5.80;50.74;100825.06;5053641;28;19921;-80
2021/11/02 14:12:39;;;;;;;;;;;;;;;5.78;50.14;100827.75;5000300;28;19970;-77
2021/11/02 14:15:23;;;;;;;;;;;;;;;5.74;50.10;100836.75;5034398;28;19928;-79
2021/11/02 14:17:51;;;;;;;;;;;;;;;5.69;50.62;100837.84;5024839;28;19921;-78
2021/11/02 14:20:32;;;;;;;;;;;;;;;5.70;50.81;100850.19;5022542;28;20427;-79
2021/11/02 14:22:58;;;;;;;;;;;;;;;5.68;50.80;100849.34;5026014;28;19921;-76
2021/11/02 14:25:37;;;;;;;;;;;;;;;5.64;50.62;100850.38;5010719;28;19956;-77
2021/11/02 14:28:03;;;;;;;;;;;;;;;5.59;50.53;100854.06;4989094;28;19925;-78
2021/11/02 14:30:32;;;;;;;;;;;;;;;5.52;50.45;100857.84;5018414;28;20427;-77
2021/11/02 14:33:11;;;;;;;;;;;;;;;5.41;50.73;100854.72;4984424;28;19920;-78
2021/11/02 14:35:46;;;;;;;;;;;;;;;5.19;50.51;100865.19;4984524;28;19921;-77
2021/11/02 14:38:13;;;;;;;;;;;;;;;4.79;51.06;100866.50;4983873;28;19924;-78
2021/11/02 14:40:42;;;;;;;;;;;;;;;4.85;51.36;100868.06;4983748;28;19920;-77
2021/11/02 14:43:17;;;;;;;;;;;;;;;4.82;51.39;100876.13;4983655;28;20386;-80
2021/11/02 14:45:53;;;;;;;;;;;;;;;4.77;51.57;100884.19;4984227;28;19925;-81
2021/11/02 14:48:32;;;;;;;;;;;;;;;4.71;51.71;100888.84;5001736;28;19925;-82
2021/11/02 14:51:02;;;;;;;;;;;;;;;4.67;51.79;100897.81;5017148;28;20371;-80
2021/11/02 14:53:28;;;;;;;;;;;;;;;4.59;51.81;100895.41;5036959;28;19928;-81
2021/11/02 14:55:54;;;;;;;;;;;;;;;4.54;51.96;100892.88;5036845;28;19974;-80
2021/11/02 14:58:40;;;;;;;;;;;;;;;4.51;52.06;100895.59;5053347;28;19920;-81
2021/11/02 15:01:20;;;;;;;;;;;;;;;4.21;52.26;100902.66;5036491;28;19921;-81
2021/11/02 15:04:06;;;;;;;;;;;;;;;4.18;52.60;100897.50;5020156;28;19970;-80
2021/11/02 15:06:34;;;;;;;;;;;;;;;4.21;52.56;100901.81;5052780;28;19967;-80
2021/11/02 15:09:00;;;;;;;;;;;;;;;4.12;52.71;100901.16;5019807;28;20011;-77
2021/11/02 15:11:27;;;;;;;;;;;;;;;4.10;52.74;100905.66;5052825;28;19966;-79
2021/11/02 15:13:58;;;;;;;;;;;;;;;4.05;52.77;100915.47;5036309;28;19921;-77
2021/11/02 15:16:25;;;;;;;;;;;;;;;3.99;53.14;100918.31;5036169;28;19921;-78
2021/11/02 15:18:52;;;;;;;;;;;;;;;3.92;53.09;100919.38;5019758;28;19929;-77
2021/11/02 15:21:30;;;;;;;;;;;;;;;3.96;53.04;100928.13;5019727;28;19928;-77
2021/11/02 15:23:56;;;;;;;;;;;;;;;3.96;53.42;100925.47;5036664;28;19935;-78
2021/11/02 15:26:22;;;;;;;;;;;;;;;4.01;53.25;100939.44;5019433;28;20394;-83
2021/11/02 15:28:49;;;;;;;;;;;;;;;4.02;53.31;100936.72;5019112;28;20364;-77
2021/11/02 15:31:15;;;;;;;;;;;;;;;4.04;53.14;100940.22;5020134;28;20403;-79
2021/11/02 15:33:42;;;;;;;;;;;;;;;4.00;53.25;100941.22;5019680;28;20307;-77
2021/11/02 15:36:09;;;;;;;;;;;;;;;3.93;53.22;100937.00;5036078;28;19982;-79
2021/11/02 15:38:35;;;;;;;;;;;;;;;3.63;53.39;100943.97;5035577;28;19966;-77
2021/11/02 15:41:15;;;;;;;;;;;;;;;3.64;53.69;100957.13;5018399;28;19928;-80
2021/11/02 15:43:49;;;;;;;;;;;;;;;3.62;53.97;100961.59;5035695;28;19924;-78
2021/11/02 15:46:22;;;;;;;;;;;;;;;3.56;53.79;100956.47;5033183;28;19982;-81
2021/11/02 15:48:50;;;;;;;;;;;;;;;3.57;53.87;100963.50;5017565;28;20537;-81
2021/11/02 15:51:18;;;;;;;;;;;;;;;3.55;53.79;100965.31;5033201;28;19966;-81
2021/11/02 15:53:45;;;;;;;;;;;;;;;3.54;53.67;100966.22;5015389;28;19974;-81
2021/11/02 15:56:13;;;;;;;;;;;;;;;3.46;54.00;100973.50;5049774;28;19927;-79
2021/11/02 15:58:40;;;;;;;;;;;;;;;3.45;53.92;100977.00;5033876;28;19927;-80
2021/11/02 16:01:06;;;;;;;;;;;;;;;3.44;54.22;100975.28;5017388;28;19920;-79
2021/11/02 16:03:35;;;;;;;;;;;;;;;3.34;54.24;100981.69;5017656;28;19924;-78
2021/11/02 16:06:05;;;;;;;;;;;;;;;3.21;54.33;100985.56;5017506;28;19925;-80
2021/11/02 16:08:31;;;;;;;;;;;;;;;3.14;54.30;100987.47;5017306;28;19920;-79
2021/11/02 16:11:05;;;;;;;;;;;;;;;3.13;54.56;100983.94;5010925;28;19921;-77
2021/11/02 16:13:31;;;;;;;;;;;;;;;3.07;54.28;100994.66;5046649;28;20415;-78
2021/11/02 16:15:58;;;;;;;;;;;;;;;3.00;54.62;100979.84;5017197;28;20353;-79
2021/11/02 16:18:25;;;;;;;;;;;;;;;2.90;54.82;100988.91;5012414;28;20401;-78
2021/11/02 16:20:52;;;;;;;;;;;;;;;2.86;55.14;100993.38;4996212;28;20366;-78
2021/11/02 16:23:20;;;;;;;;;;;;;;;2.84;55.01;100989.88;4979811;28;20027;-80
2021/11/02 16:25:47;;;;;;;;;;;;;;;2.59;55.04;101000.09;4996280;28;19925;-76
2021/11/02 16:28:36;;;;;;;;;;;;;;;2.63;55.27;100996.50;4996204;28;19925;-78
2021/11/02 16:31:05;;;;;;;;;;;;;;;2.64;55.27;101007.94;4991126;28;19959;-79
2021/11/02 16:33:33;;;;;;;;;;;;;;;2.51;55.25;101007.31;4979876;28;20064;-79
2021/11/02 16:36:13;;;;;;;;;;;;;;;2.41;55.28;101000.50;4980105;28;19920;-79
2021/11/02 16:38:43;;;;;;;;;;;;;;;2.40;55.53;101006.66;4996279;28;19963;-79
2021/11/02 16:41:18;;;;;;;;;;;;;;;2.41;55.60;101005.78;4995598;28;19928;-76
2021/11/02 16:43:51;;;;;;;;;;;;;;;2.30;55.59;101013.03;4979736;28;19928;-77
2021/11/02 16:46:27;;;;;;;;;;;;;;;2.30;55.60;101013.03;4979790;28;20394;-79
2021/11/02 16:49:07;;;;;;;;;;;;;;;2.27;55.57;101018.34;4987752;28;19921;-79
2021/11/02 16:51:41;;;;;;;;;;;;;;;2.24;55.65;101029.84;5048264;28;19992;-78
2021/11/02 16:54:09;;;;;;;;;;;;;;;2.19;55.82;101032.56;4999251;28;19920;-80
2021/11/02 16:56:35;;;;;;;;;;;;;;;2.23;55.74;101033.38;5000496;28;19924;-80
2021/11/02 16:59:03;;;;;;;;;;;;;;;2.23;55.87;101032.50;5002116;28;19932;-80
2021/11/02 17:01:30;;;;;;;;;;;;;;;2.16;55.78;101027.34;4999683;28;19925;-80
2021/11/02 17:03:58;;;;;;;;;;;;;;;2.18;55.58;101033.47;5013279;28;19920;-79
2021/11/02 17:06:31;;;;;;;;;;;;;;;2.09;55.33;101038.91;5023850;28;19925;-78
2021/11/02 17:09:08;;;;;;;;;;;;;;;2.11;55.54;101033.63;5008347;28;19927;-79
2021/11/02 17:11:40;;;;;;;;;;;;;;;2.06;55.69;101035.44;5043142;28;19927;-79
2021/11/02 17:14:08;;;;;;;;;;;;;;;2.05;55.49;101045.13;5007720;28;19921;-79
2021/11/02 17:16:36;;;;;;;;;;;;;;;2.03;55.72;101035.50;5032231;28;19929;-80
2021/11/02 17:19:06;;;;;;;;;;;;;;;2.03;55.67;101043.41;5003533;28;19921;-81
2021/11/02 17:21:34;;;;;;;;;;;;;;;1.95;55.61;101054.94;5005488;28;19932;-79
2021/11/02 17:24:01;;;;;;;;;;;;;;;1.95;55.69;101054.94;5004172;28;19953;-76
2021/11/02 17:26:27;;;;;;;;;;;;;;;1.93;55.66;101056.75;5002870;28;19933;-76
2021/11/02 17:28:54;;;;;;;;;;;;;;;1.90;55.65;101063.84;5002672;28;19952;-77
2021/11/02 17:31:40;;;;;;;;;;;;;;;1.76;55.77;101064.06;4997855;28;19961;-75
2021/11/02 17:34:08;;;;;;;;;;;;;;;1.75;55.95;101072.03;4983986;28;19921;-77
2021/11/02 17:36:38;;;;;;;;;;;;;;;1.69;56.23;101081.78;4976320;28;20292;-77
2021/11/02 17:39:07;;;;;;;;;;;;;;;1.67;56.13;101080.91;4994306;28;20016;-79
2021/11/02 17:41:35;;;;;;;;;;;;;;;1.64;56.04;101083.59;4994404;28;20012;-77
2021/11/02 17:44:03;;;;;;;;;;;;;;;1.64;56.05;101080.97;4990106;28;20028;-78
2021/11/02 17:46:30;;;;;;;;;;;;;;;1.59;56.14;101082.81;5019249;28;19932;-81